sensor_id;sensor_type;location;lat;lon;timestamp;temperature;humidity
38938;DHT22;24727;51.974;20.868;2023-10-31T00:01:38;9.80;5.40
38938;DHT22;24727;51.974;20.868;2023-10-31T00:04:04;9.70;6.30
38938;DHT22;24727;51.974;20.868;2023-10-31T00:06:30;9.70;7.00
38938;DHT22;24727;51.974;20.868;2023-10-31T00:08:58;9.70;7.40
38938;DHT22;24727;51.974;20.868;2023-10-31T00:11:23;9.70;5.20
38938;DHT22;24727;51.974;20.868;2023-10-31T00:13:49;9.70;7.80
38938;DHT22;24727;51.974;20.868;2023-10-31T00:16:17;9.70;9.30
38938;DHT22;24727;51.974;20.868;2023-10-31T00:18:43;9.70;9.90
38938;DHT22;24727;51.974;20.868;2023-10-31T00:21:09;9.70;11.30
38938;DHT22;24727;51.974;20.868;2023-10-31T00:23:43;9.70;14.10
38938;DHT22;24727;51.974;20.868;2023-10-31T00:26:09;9.80;14.70
38938;DHT22;24727;51.974;20.868;2023-10-31T00:28:36;9.80;15.30
38938;DHT22;24727;51.974;20.868;2023-10-31T00:31:03;9.70;14.60
38938;DHT22;24727;51.974;20.868;2023-10-31T00:33:31;9.80;14.20
38938;DHT22;24727;51.974;20.868;2023-10-31T00:35:57;9.80;15.70
38938;DHT22;24727;51.974;20.868;2023-10-31T00:38:29;9.70;14.70
38938;DHT22;24727;51.974;20.868;2023-10-31T00:40:57;9.70;15.00
38938;DHT22;24727;51.974;20.868;2023-10-31T00:43:25;9.70;15.40
38938;DHT22;24727;51.974;20.868;2023-10-31T00:45:51;9.70;13.50
38938;DHT22;24727;51.974;20.868;2023-10-31T00:48:17;9.70;11.80
38938;DHT22;24727;51.974;20.868;2023-10-31T00:50:43;9.70;5.60
38938;DHT22;24727;51.974;20.868;2023-10-31T00:53:10;9.60;2.80
38938;DHT22;24727;51.974;20.868;2023-10-31T00:55:36;9.60;1.00
38938;DHT22;24727;51.974;20.868;2023-10-31T00:58:03;9.50;1.00
38938;DHT22;24727;51.974;20.868;2023-10-31T01:03:04;9.50;1.00
38938;DHT22;24727;51.974;20.868;2023-10-31T01:05:32;9.50;1.00
38938;DHT22;24727;51.974;20.868;2023-10-31T01:07:58;9.50;1.00
38938;DHT22;24727;51.974;20.868;2023-10-31T01:10:25;9.50;1.00
38938;DHT22;24727;51.974;20.868;2023-10-31T01:12:51;9.50;1.00
38938;DHT22;24727;51.974;20.868;2023-10-31T01:15:18;9.50;1.00
38938;DHT22;24727;51.974;20.868;2023-10-31T01:17:45;9.50;1.00
38938;DHT22;24727;51.974;20.868;2023-10-31T01:20:11;9.50;1.00
38938;DHT22;24727;51.974;20.868;2023-10-31T01:22:38;9.50;1.00
38938;DHT22;24727;51.974;20.868;2023-10-31T01:25:04;9.40;1.00
38938;DHT22;24727;51.974;20.868;2023-10-31T01:27:32;9.40;1.00
38938;DHT22;24727;51.974;20.868;2023-10-31T01:29:57;9.50;1.00
38938;DHT22;24727;51.974;20.868;2023-10-31T01:32:24;9.50;1.00
38938;DHT22;24727;51.974;20.868;2023-10-31T01:34:50;9.50;1.00
38938;DHT22;24727;51.974;20.868;2023-10-31T01:37:16;9.60;1.00
38938;DHT22;24727;51.974;20.868;2023-10-31T01:39:45;9.70;1.00
38938;DHT22;24727;51.974;20.868;2023-10-31T01:42:15;9.70;1.00
38938;DHT22;24727;51.974;20.868;2023-10-31T01:44:41;9.70;1.00
38938;DHT22;24727;51.974;20.868;2023-10-31T01:47:07;9.70;1.00
38938;DHT22;24727;51.974;20.868;2023-10-31T01:49:38;9.70;1.00
38938;DHT22;24727;51.974;20.868;2023-10-31T01:52:04;9.70;1.00
38938;DHT22;24727;51.974;20.868;2023-10-31T01:54:33;9.70;1.00
38938;DHT22;24727;51.974;20.868;2023-10-31T01:57:00;9.70;1.00
38938;DHT22;24727;51.974;20.868;2023-10-31T01:59:27;9.70;2.10
38938;DHT22;24727;51.974;20.868;2023-10-31T02:01:55;9.80;2.10
38938;DHT22;24727;51.974;20.868;2023-10-31T02:04:26;9.90;6.20
38938;DHT22;24727;51.974;20.868;2023-10-31T02:06:52;9.90;6.00
38938;DHT22;24727;51.974;20.868;2023-10-31T02:09:18;9.80;6.10
38938;DHT22;24727;51.974;20.868;2023-10-31T02:11:44;9.90;7.10
38938;DHT22;24727;51.974;20.868;2023-10-31T02:14:10;9.90;6.90
38938;DHT22;24727;51.974;20.868;2023-10-31T02:16:37;9.90;9.60
38938;DHT22;24727;51.974;20.868;2023-10-31T02:19:04;9.90;11.50
38938;DHT22;24727;51.974;20.868;2023-10-31T02:21:32;9.90;12.60
38938;DHT22;24727;51.974;20.868;2023-10-31T02:24:02;9.90;13.70
38938;DHT22;24727;51.974;20.868;2023-10-31T02:26:32;9.90;12.00
38938;DHT22;24727;51.974;20.868;2023-10-31T02:28:59;9.90;2.20
38938;DHT22;24727;51.974;20.868;2023-10-31T02:31:29;9.90;1.00
38938;DHT22;24727;51.974;20.868;2023-10-31T02:33:57;10.00;1.00
38938;DHT22;24727;51.974;20.868;2023-10-31T02:36:28;10.00;1.00
38938;DHT22;24727;51.974;20.868;2023-10-31T02:38:58;10.00;1.00
38938;DHT22;24727;51.974;20.868;2023-10-31T02:41:28;10.10;1.00
38938;DHT22;24727;51.974;20.868;2023-10-31T02:43:57;10.10;1.00
38938;DHT22;24727;51.974;20.868;2023-10-31T02:46:24;10.20;1.00
38938;DHT22;24727;51.974;20.868;2023-10-31T02:48:50;10.30;1.00
38938;DHT22;24727;51.974;20.868;2023-10-31T02:51:17;10.30;1.00
38938;DHT22;24727;51.974;20.868;2023-10-31T02:53:44;10.40;1.00
38938;DHT22;24727;51.974;20.868;2023-10-31T02:56:10;10.40;1.00
38938;DHT22;24727;51.974;20.868;2023-10-31T02:58:36;10.40;1.90
38938;DHT22;24727;51.974;20.868;2023-10-31T03:01:02;10.60;3.80
38938;DHT22;24727;51.974;20.868;2023-10-31T03:03:29;10.50;1.90
38938;DHT22;24727;51.974;20.868;2023-10-31T03:05:55;10.60;1.60
38938;DHT22;24727;51.974;20.868;2023-10-31T03:08:21;10.60;1.00
38938;DHT22;24727;51.974;20.868;2023-10-31T03:10:48;10.60;1.00
38938;DHT22;24727;51.974;20.868;2023-10-31T03:13:18;10.70;1.00
38938;DHT22;24727;51.974;20.868;2023-10-31T03:15:50;10.60;1.00
38938;DHT22;24727;51.974;20.868;2023-10-31T03:18:16;10.70;2.20
38938;DHT22;24727;51.974;20.868;2023-10-31T03:20:45;10.70;6.30
38938;DHT22;24727;51.974;20.868;2023-10-31T03:23:14;10.70;1.00
38938;DHT22;24727;51.974;20.868;2023-10-31T03:25:40;10.70;1.00
38938;DHT22;24727;51.974;20.868;2023-10-31T03:28:18;10.70;1.00
38938;DHT22;24727;51.974;20.868;2023-10-31T03:30:47;10.80;2.40
38938;DHT22;24727;51.974;20.868;2023-10-31T03:33:14;10.80;1.00
38938;DHT22;24727;51.974;20.868;2023-10-31T03:35:42;10.90;4.90
38938;DHT22;24727;51.974;20.868;2023-10-31T03:38:08;10.90;2.20
38938;DHT22;24727;51.974;20.868;2023-10-31T03:40:34;10.90;1.00
38938;DHT22;24727;51.974;20.868;2023-10-31T03:43:02;11.00;1.70
38938;DHT22;24727;51.974;20.868;2023-10-31T03:45:29;10.90;2.40
38938;DHT22;24727;51.974;20.868;2023-10-31T03:47:56;11.00;5.20
38938;DHT22;24727;51.974;20.868;2023-10-31T03:50:22;11.00;1.00
38938;DHT22;24727;51.974;20.868;2023-10-31T03:52:48;11.00;1.10
38938;DHT22;24727;51.974;20.868;2023-10-31T03:55:14;11.10;6.10
38938;DHT22;24727;51.974;20.868;2023-10-31T03:57:40;11.10;2.90
38938;DHT22;24727;51.974;20.868;2023-10-31T04:00:08;11.10;3.40
38938;DHT22;24727;51.974;20.868;2023-10-31T04:02:34;11.10;2.90
38938;DHT22;24727;51.974;20.868;2023-10-31T04:05:00;11.10;1.00
38938;DHT22;24727;51.974;20.868;2023-10-31T04:07:25;11.20;1.00
38938;DHT22;24727;51.974;20.868;2023-10-31T04:09:52;11.20;1.00
38938;DHT22;24727;51.974;20.868;2023-10-31T04:12:18;11.20;1.00
38938;DHT22;24727;51.974;20.868;2023-10-31T04:14:45;11.20;1.00
38938;DHT22;24727;51.974;20.868;2023-10-31T04:17:13;11.30;1.00
38938;DHT22;24727;51.974;20.868;2023-10-31T04:19:40;11.30;1.00
38938;DHT22;24727;51.974;20.868;2023-10-31T04:22:06;11.30;1.00
38938;DHT22;24727;51.974;20.868;2023-10-31T04:24:31;11.40;1.00
38938;DHT22;24727;51.974;20.868;2023-10-31T04:26:57;11.40;1.00
38938;DHT22;24727;51.974;20.868;2023-10-31T04:29:23;11.40;1.00
38938;DHT22;24727;51.974;20.868;2023-10-31T04:31:49;11.50;1.00
38938;DHT22;24727;51.974;20.868;2023-10-31T04:34:15;11.50;1.00
38938;DHT22;24727;51.974;20.868;2023-10-31T04:36:41;11.50;1.00
38938;DHT22;24727;51.974;20.868;2023-10-31T04:39:07;11.50;1.00
38938;DHT22;24727;51.974;20.868;2023-10-31T04:41:33;11.60;1.00
38938;DHT22;24727;51.974;20.868;2023-10-31T04:43:59;11.60;1.00
38938;DHT22;24727;51.974;20.868;2023-10-31T04:46:25;11.60;1.00
38938;DHT22;24727;51.974;20.868;2023-10-31T04:48:54;11.70;1.00
38938;DHT22;24727;51.974;20.868;2023-10-31T04:51:20;11.70;1.00
38938;DHT22;24727;51.974;20.868;2023-10-31T04:53:46;11.80;1.00
38938;DHT22;24727;51.974;20.868;2023-10-31T04:56:13;11.80;1.00
38938;DHT22;24727;51.974;20.868;2023-10-31T04:58:40;11.90;1.00
38938;DHT22;24727;51.974;20.868;2023-10-31T05:01:15;11.90;1.00
38938;DHT22;24727;51.974;20.868;2023-10-31T05:03:42;12.00;1.00
38938;DHT22;24727;51.974;20.868;2023-10-31T05:06:09;12.00;1.00
38938;DHT22;24727;51.974;20.868;2023-10-31T05:08:34;12.10;1.00
38938;DHT22;24727;51.974;20.868;2023-10-31T05:11:01;12.10;1.00
38938;DHT22;24727;51.974;20.868;2023-10-31T05:13:28;12.20;1.00
38938;DHT22;24727;51.974;20.868;2023-10-31T05:15:55;12.20;1.00
38938;DHT22;24727;51.974;20.868;2023-10-31T05:18:22;12.20;1.00
38938;DHT22;24727;51.974;20.868;2023-10-31T05:20:49;12.30;1.00
38938;DHT22;24727;51.974;20.868;2023-10-31T05:23:15;12.30;1.00
38938;DHT22;24727;51.974;20.868;2023-10-31T05:25:43;12.30;1.00
38938;DHT22;24727;51.974;20.868;2023-10-31T05:28:09;12.30;1.00
38938;DHT22;24727;51.974;20.868;2023-10-31T05:30:35;12.30;1.00
38938;DHT22;24727;51.974;20.868;2023-10-31T05:33:01;12.40;1.00
38938;DHT22;24727;51.974;20.868;2023-10-31T05:35:27;12.40;1.00
38938;DHT22;24727;51.974;20.868;2023-10-31T05:37:53;12.50;1.00
38938;DHT22;24727;51.974;20.868;2023-10-31T05:40:19;12.60;1.00
38938;DHT22;24727;51.974;20.868;2023-10-31T05:42:48;12.60;1.00
38938;DHT22;24727;51.974;20.868;2023-10-31T05:45:14;12.70;1.00
38938;DHT22;24727;51.974;20.868;2023-10-31T05:47:39;12.70;1.00
38938;DHT22;24727;51.974;20.868;2023-10-31T05:50:06;12.70;1.00
38938;DHT22;24727;51.974;20.868;2023-10-31T05:52:32;12.70;1.00
38938;DHT22;24727;51.974;20.868;2023-10-31T05:54:58;12.80;1.00
38938;DHT22;24727;51.974;20.868;2023-10-31T05:57:26;12.80;1.00
38938;DHT22;24727;51.974;20.868;2023-10-31T05:59:52;12.90;1.00
38938;DHT22;24727;51.974;20.868;2023-10-31T06:02:18;13.00;1.00
38938;DHT22;24727;51.974;20.868;2023-10-31T06:04:47;13.00;1.00
38938;DHT22;24727;51.974;20.868;2023-10-31T06:07:17;13.00;1.00
38938;DHT22;24727;51.974;20.868;2023-10-31T06:09:45;12.90;1.00
38938;DHT22;24727;51.974;20.868;2023-10-31T06:12:11;12.80;1.00
38938;DHT22;24727;51.974;20.868;2023-10-31T06:14:37;12.80;1.00
38938;DHT22;24727;51.974;20.868;2023-10-31T06:17:03;12.80;1.00
38938;DHT22;24727;51.974;20.868;2023-10-31T06:19:34;12.70;1.00
38938;DHT22;24727;51.974;20.868;2023-10-31T06:22:01;12.70;1.00
38938;DHT22;24727;51.974;20.868;2023-10-31T06:24:27;12.70;1.00
38938;DHT22;24727;51.974;20.868;2023-10-31T06:26:53;12.70;1.00
38938;DHT22;24727;51.974;20.868;2023-10-31T06:29:19;12.70;1.00
38938;DHT22;24727;51.974;20.868;2023-10-31T06:31:45;12.70;1.00
38938;DHT22;24727;51.974;20.868;2023-10-31T06:34:11;12.70;1.00
38938;DHT22;24727;51.974;20.868;2023-10-31T06:36:38;12.70;1.00
38938;DHT22;24727;51.974;20.868;2023-10-31T06:39:06;12.70;1.00
38938;DHT22;24727;51.974;20.868;2023-10-31T06:41:40;12.70;1.00
38938;DHT22;24727;51.974;20.868;2023-10-31T06:44:06;12.70;1.00
38938;DHT22;24727;51.974;20.868;2023-10-31T06:46:32;12.70;1.00
38938;DHT22;24727;51.974;20.868;2023-10-31T06:48:58;12.80;1.00
38938;DHT22;24727;51.974;20.868;2023-10-31T06:51:25;12.80;1.00
38938;DHT22;24727;51.974;20.868;2023-10-31T06:53:51;12.80;1.00
38938;DHT22;24727;51.974;20.868;2023-10-31T06:56:17;12.70;1.00
38938;DHT22;24727;51.974;20.868;2023-10-31T06:58:45;12.80;1.00
38938;DHT22;24727;51.974;20.868;2023-10-31T07:01:11;12.80;1.00
38938;DHT22;24727;51.974;20.868;2023-10-31T07:03:38;12.80;1.00
38938;DHT22;24727;51.974;20.868;2023-10-31T07:06:04;12.80;1.00
38938;DHT22;24727;51.974;20.868;2023-10-31T07:08:30;12.80;1.00
38938;DHT22;24727;51.974;20.868;2023-10-31T07:10:56;12.80;1.00
38938;DHT22;24727;51.974;20.868;2023-10-31T07:13:23;12.80;1.00
38938;DHT22;24727;51.974;20.868;2023-10-31T07:15:49;12.90;1.00
38938;DHT22;24727;51.974;20.868;2023-10-31T07:18:15;13.00;1.00
38938;DHT22;24727;51.974;20.868;2023-10-31T07:20:41;13.00;1.00
38938;DHT22;24727;51.974;20.868;2023-10-31T07:23:09;13.00;1.00
38938;DHT22;24727;51.974;20.868;2023-10-31T07:25:38;13.00;1.00
38938;DHT22;24727;51.974;20.868;2023-10-31T07:28:05;13.10;1.00
38938;DHT22;24727;51.974;20.868;2023-10-31T07:30:31;13.10;1.00
38938;DHT22;24727;51.974;20.868;2023-10-31T07:32:56;13.20;1.00
38938;DHT22;24727;51.974;20.868;2023-10-31T07:35:24;13.20;1.00
38938;DHT22;24727;51.974;20.868;2023-10-31T07:37:51;13.20;1.00
38938;DHT22;24727;51.974;20.868;2023-10-31T07:40:17;13.30;1.00
38938;DHT22;24727;51.974;20.868;2023-10-31T07:42:43;13.40;1.00
38938;DHT22;24727;51.974;20.868;2023-10-31T07:45:10;13.40;1.00
38938;DHT22;24727;51.974;20.868;2023-10-31T07:47:36;13.50;1.00
38938;DHT22;24727;51.974;20.868;2023-10-31T07:50:03;13.50;1.00
38938;DHT22;24727;51.974;20.868;2023-10-31T07:52:30;13.40;1.00
38938;DHT22;24727;51.974;20.868;2023-10-31T07:54:56;13.50;1.00
38938;DHT22;24727;51.974;20.868;2023-10-31T07:57:22;13.60;1.00
38938;DHT22;24727;51.974;20.868;2023-10-31T07:59:49;13.60;1.00
38938;DHT22;24727;51.974;20.868;2023-10-31T08:02:15;13.70;1.00
38938;DHT22;24727;51.974;20.868;2023-10-31T08:04:42;13.80;1.00
38938;DHT22;24727;51.974;20.868;2023-10-31T08:07:15;13.90;1.00
38938;DHT22;24727;51.974;20.868;2023-10-31T08:09:47;14.00;1.00
38938;DHT22;24727;51.974;20.868;2023-10-31T08:12:13;14.00;1.00
38938;DHT22;24727;51.974;20.868;2023-10-31T08:14:40;14.00;1.00
38938;DHT22;24727;51.974;20.868;2023-10-31T08:17:06;14.10;1.00
38938;DHT22;24727;51.974;20.868;2023-10-31T08:19:34;14.10;1.00
38938;DHT22;24727;51.974;20.868;2023-10-31T08:22:00;14.20;1.00
38938;DHT22;24727;51.974;20.868;2023-10-31T08:24:26;14.40;1.00
38938;DHT22;24727;51.974;20.868;2023-10-31T08:26:54;14.40;1.00
38938;DHT22;24727;51.974;20.868;2023-10-31T08:29:21;14.40;1.00
38938;DHT22;24727;51.974;20.868;2023-10-31T08:31:47;14.50;1.00
38938;DHT22;24727;51.974;20.868;2023-10-31T08:34:13;14.50;1.00
38938;DHT22;24727;51.974;20.868;2023-10-31T08:36:40;14.50;1.00
38938;DHT22;24727;51.974;20.868;2023-10-31T08:39:06;14.50;1.00
38938;DHT22;24727;51.974;20.868;2023-10-31T08:41:34;14.40;1.00
38938;DHT22;24727;51.974;20.868;2023-10-31T08:44:00;14.40;1.00
38938;DHT22;24727;51.974;20.868;2023-10-31T08:46:30;14.40;1.00
38938;DHT22;24727;51.974;20.868;2023-10-31T08:48:56;14.40;1.00
38938;DHT22;24727;51.974;20.868;2023-10-31T08:51:22;14.40;1.00
38938;DHT22;24727;51.974;20.868;2023-10-31T08:53:49;14.40;1.00
38938;DHT22;24727;51.974;20.868;2023-10-31T08:56:15;14.40;1.00
38938;DHT22;24727;51.974;20.868;2023-10-31T08:58:40;14.50;1.00
38938;DHT22;24727;51.974;20.868;2023-10-31T09:01:06;14.50;1.00
38938;DHT22;24727;51.974;20.868;2023-10-31T09:03:33;14.50;1.00
38938;DHT22;24727;51.974;20.868;2023-10-31T09:06:02;14.50;1.00
38938;DHT22;24727;51.974;20.868;2023-10-31T09:08:27;14.40;1.00
38938;DHT22;24727;51.974;20.868;2023-10-31T09:10:54;14.40;1.00
38938;DHT22;24727;51.974;20.868;2023-10-31T09:13:20;14.50;1.00
38938;DHT22;24727;51.974;20.868;2023-10-31T09:15:46;14.50;1.00
38938;DHT22;24727;51.974;20.868;2023-10-31T09:18:12;14.40;1.00
38938;DHT22;24727;51.974;20.868;2023-10-31T09:20:39;14.40;1.00
38938;DHT22;24727;51.974;20.868;2023-10-31T09:23:06;14.50;1.00
38938;DHT22;24727;51.974;20.868;2023-10-31T09:25:33;14.50;1.00
38938;DHT22;24727;51.974;20.868;2023-10-31T09:28:00;14.50;1.00
38938;DHT22;24727;51.974;20.868;2023-10-31T09:30:26;14.50;1.00
38938;DHT22;24727;51.974;20.868;2023-10-31T09:32:52;14.60;1.00
38938;DHT22;24727;51.974;20.868;2023-10-31T09:35:18;14.60;1.00
38938;DHT22;24727;51.974;20.868;2023-10-31T09:37:44;14.60;1.00
38938;DHT22;24727;51.974;20.868;2023-10-31T09:40:14;14.70;1.00
38938;DHT22;24727;51.974;20.868;2023-10-31T09:42:40;14.80;1.00
38938;DHT22;24727;51.974;20.868;2023-10-31T09:45:07;14.90;1.00
38938;DHT22;24727;51.974;20.868;2023-10-31T09:47:35;15.00;1.00
38938;DHT22;24727;51.974;20.868;2023-10-31T09:50:02;15.10;99.90
38938;DHT22;24727;51.974;20.868;2023-10-31T09:52:29;15.20;1.00
38938;DHT22;24727;51.974;20.868;2023-10-31T09:54:56;15.30;99.90
38938;DHT22;24727;51.974;20.868;2023-10-31T09:57:22;15.30;1.00
38938;DHT22;24727;51.974;20.868;2023-10-31T09:59:48;15.30;1.40
38938;DHT22;24727;51.974;20.868;2023-10-31T10:02:14;15.40;1.00
38938;DHT22;24727;51.974;20.868;2023-10-31T10:04:42;15.60;1.00
38938;DHT22;24727;51.974;20.868;2023-10-31T10:07:08;15.70;1.00
38938;DHT22;24727;51.974;20.868;2023-10-31T10:09:35;15.80;1.00
38938;DHT22;24727;51.974;20.868;2023-10-31T10:12:04;15.80;99.90
38938;DHT22;24727;51.974;20.868;2023-10-31T10:14:30;16.00;1.00
38938;DHT22;24727;51.974;20.868;2023-10-31T10:16:59;16.10;99.90
38938;DHT22;24727;51.974;20.868;2023-10-31T10:19:26;16.20;1.40
38938;DHT22;24727;51.974;20.868;2023-10-31T10:21:54;16.30;99.90
38938;DHT22;24727;51.974;20.868;2023-10-31T10:24:21;16.40;1.00
38938;DHT22;24727;51.974;20.868;2023-10-31T10:26:48;16.50;99.90
38938;DHT22;24727;51.974;20.868;2023-10-31T10:29:14;16.60;99.90
38938;DHT22;24727;51.974;20.868;2023-10-31T10:31:41;16.60;1.40
38938;DHT22;24727;51.974;20.868;2023-10-31T10:34:08;16.70;99.90
38938;DHT22;24727;51.974;20.868;2023-10-31T10:36:34;16.80;99.90
38938;DHT22;24727;51.974;20.868;2023-10-31T10:39:01;16.90;99.90
38938;DHT22;24727;51.974;20.868;2023-10-31T10:41:28;16.90;99.90
38938;DHT22;24727;51.974;20.868;2023-10-31T10:44:06;16.90;99.90
38938;DHT22;24727;51.974;20.868;2023-10-31T10:46:36;17.10;99.90
38938;DHT22;24727;51.974;20.868;2023-10-31T10:49:07;17.20;99.90
38938;DHT22;24727;51.974;20.868;2023-10-31T10:51:35;17.30;99.90
38938;DHT22;24727;51.974;20.868;2023-10-31T10:54:09;17.50;99.90
38938;DHT22;24727;51.974;20.868;2023-10-31T10:56:54;17.70;99.90
38938;DHT22;24727;51.974;20.868;2023-10-31T10:59:40;17.70;99.90
38938;DHT22;24727;51.974;20.868;2023-10-31T11:02:06;17.60;99.90
38938;DHT22;24727;51.974;20.868;2023-10-31T11:04:34;17.50;1.00
38938;DHT22;24727;51.974;20.868;2023-10-31T11:07:08;17.40;99.90
38938;DHT22;24727;51.974;20.868;2023-10-31T11:09:41;17.40;99.90
38938;DHT22;24727;51.974;20.868;2023-10-31T11:12:10;17.20;99.90
38938;DHT22;24727;51.974;20.868;2023-10-31T11:14:37;17.20;99.90
38938;DHT22;24727;51.974;20.868;2023-10-31T11:17:31;17.30;99.90
38938;DHT22;24727;51.974;20.868;2023-10-31T11:19:59;17.30;99.90
38938;DHT22;24727;51.974;20.868;2023-10-31T11:22:36;17.30;99.90
38938;DHT22;24727;51.974;20.868;2023-10-31T11:25:02;17.30;99.90
38938;DHT22;24727;51.974;20.868;2023-10-31T11:27:29;17.40;1.00
38938;DHT22;24727;51.974;20.868;2023-10-31T11:29:56;17.40;1.00
38938;DHT22;24727;51.974;20.868;2023-10-31T11:32:22;17.40;99.90
38938;DHT22;24727;51.974;20.868;2023-10-31T11:34:48;17.40;99.90
38938;DHT22;24727;51.974;20.868;2023-10-31T11:37:34;17.30;1.40
38938;DHT22;24727;51.974;20.868;2023-10-31T11:40:22;17.20;99.90
38938;DHT22;24727;51.974;20.868;2023-10-31T11:42:53;17.20;99.90
38938;DHT22;24727;51.974;20.868;2023-10-31T11:45:44;17.10;99.90
38938;DHT22;24727;51.974;20.868;2023-10-31T11:48:13;17.10;99.90
38938;DHT22;24727;51.974;20.868;2023-10-31T11:50:40;17.10;99.90
38938;DHT22;24727;51.974;20.868;2023-10-31T11:53:14;17.00;1.00
38938;DHT22;24727;51.974;20.868;2023-10-31T11:55:46;16.90;1.40
38938;DHT22;24727;51.974;20.868;2023-10-31T11:58:24;16.80;1.00
38938;DHT22;24727;51.974;20.868;2023-10-31T12:00:56;16.70;1.00
38938;DHT22;24727;51.974;20.868;2023-10-31T12:03:26;16.70;1.00
38938;DHT22;24727;51.974;20.868;2023-10-31T12:05:59;16.50;99.90
38938;DHT22;24727;51.974;20.868;2023-10-31T12:08:42;16.50;1.00
38938;DHT22;24727;51.974;20.868;2023-10-31T12:11:16;16.40;1.00
38938;DHT22;24727;51.974;20.868;2023-10-31T12:13:53;16.40;99.90
38938;DHT22;24727;51.974;20.868;2023-10-31T12:16:26;16.40;1.00
38938;DHT22;24727;51.974;20.868;2023-10-31T12:19:00;16.30;1.00
38938;DHT22;24727;51.974;20.868;2023-10-31T12:21:46;16.30;99.90
38938;DHT22;24727;51.974;20.868;2023-10-31T12:24:17;16.30;1.00
38938;DHT22;24727;51.974;20.868;2023-10-31T12:26:44;16.20;1.00
38938;DHT22;24727;51.974;20.868;2023-10-31T12:29:12;16.20;1.00
38938;DHT22;24727;51.974;20.868;2023-10-31T12:31:56;16.00;1.00
38938;DHT22;24727;51.974;20.868;2023-10-31T12:34:25;16.00;1.00
38938;DHT22;24727;51.974;20.868;2023-10-31T12:36:52;16.00;1.40
38938;DHT22;24727;51.974;20.868;2023-10-31T12:39:25;16.00;1.00
38938;DHT22;24727;51.974;20.868;2023-10-31T12:41:51;16.00;1.00
38938;DHT22;24727;51.974;20.868;2023-10-31T12:44:24;15.90;99.90
38938;DHT22;24727;51.974;20.868;2023-10-31T12:46:53;15.90;1.00
38938;DHT22;24727;51.974;20.868;2023-10-31T12:49:20;15.80;1.00
38938;DHT22;24727;51.974;20.868;2023-10-31T12:52:00;15.80;1.00
38938;DHT22;24727;51.974;20.868;2023-10-31T12:54:31;15.80;1.00
38938;DHT22;24727;51.974;20.868;2023-10-31T12:57:02;15.80;1.00
38938;DHT22;24727;51.974;20.868;2023-10-31T12:59:30;15.70;99.90
38938;DHT22;24727;51.974;20.868;2023-10-31T13:01:56;15.70;1.00
38938;DHT22;24727;51.974;20.868;2023-10-31T13:04:31;15.60;1.00
38938;DHT22;24727;51.974;20.868;2023-10-31T13:07:05;15.60;1.00
38938;DHT22;24727;51.974;20.868;2023-10-31T13:09:32;15.60;1.00
38938;DHT22;24727;51.974;20.868;2023-10-31T13:12:07;15.60;1.00
38938;DHT22;24727;51.974;20.868;2023-10-31T13:14:33;15.60;1.00
38938;DHT22;24727;51.974;20.868;2023-10-31T13:17:00;15.60;1.00
38938;DHT22;24727;51.974;20.868;2023-10-31T13:19:29;15.60;1.00
38938;DHT22;24727;51.974;20.868;2023-10-31T13:21:55;15.60;1.00
38938;DHT22;24727;51.974;20.868;2023-10-31T13:24:21;15.60;1.00
38938;DHT22;24727;51.974;20.868;2023-10-31T13:26:48;15.60;99.90
38938;DHT22;24727;51.974;20.868;2023-10-31T13:29:20;15.50;1.00
38938;DHT22;24727;51.974;20.868;2023-10-31T13:31:46;15.50;1.00
38938;DHT22;24727;51.974;20.868;2023-10-31T13:34:12;15.50;1.00
38938;DHT22;24727;51.974;20.868;2023-10-31T13:36:39;15.40;99.90
38938;DHT22;24727;51.974;20.868;2023-10-31T13:39:06;15.40;1.00
38938;DHT22;24727;51.974;20.868;2023-10-31T13:41:32;15.40;1.00
38938;DHT22;24727;51.974;20.868;2023-10-31T13:43:58;15.40;1.00
38938;DHT22;24727;51.974;20.868;2023-10-31T13:46:24;15.40;1.00
38938;DHT22;24727;51.974;20.868;2023-10-31T13:48:53;15.40;1.00
38938;DHT22;24727;51.974;20.868;2023-10-31T13:51:20;15.40;1.00
38938;DHT22;24727;51.974;20.868;2023-10-31T13:53:46;15.40;1.00
38938;DHT22;24727;51.974;20.868;2023-10-31T13:56:12;15.30;1.00
38938;DHT22;24727;51.974;20.868;2023-10-31T13:58:39;15.40;1.00
38938;DHT22;24727;51.974;20.868;2023-10-31T14:01:06;15.40;1.00
38938;DHT22;24727;51.974;20.868;2023-10-31T14:03:33;15.50;1.00
38938;DHT22;24727;51.974;20.868;2023-10-31T14:06:00;15.50;1.00
38938;DHT22;24727;51.974;20.868;2023-10-31T14:08:26;15.60;99.90
38938;DHT22;24727;51.974;20.868;2023-10-31T14:10:52;15.60;1.00
38938;DHT22;24727;51.974;20.868;2023-10-31T14:13:19;15.50;99.90
38938;DHT22;24727;51.974;20.868;2023-10-31T14:15:46;15.50;1.40
38938;DHT22;24727;51.974;20.868;2023-10-31T14:18:12;15.40;99.90
38938;DHT22;24727;51.974;20.868;2023-10-31T14:20:41;15.30;1.00
38938;DHT22;24727;51.974;20.868;2023-10-31T14:23:07;15.40;1.00
38938;DHT22;24727;51.974;20.868;2023-10-31T14:25:33;15.30;1.00
38938;DHT22;24727;51.974;20.868;2023-10-31T14:27:59;15.30;1.00
38938;DHT22;24727;51.974;20.868;2023-10-31T14:30:28;15.20;1.00
38938;DHT22;24727;51.974;20.868;2023-10-31T14:32:53;15.10;1.00
38938;DHT22;24727;51.974;20.868;2023-10-31T14:35:20;15.10;1.00
38938;DHT22;24727;51.974;20.868;2023-10-31T14:37:46;15.10;1.00
38938;DHT22;24727;51.974;20.868;2023-10-31T14:40:18;15.00;1.00
38938;DHT22;24727;51.974;20.868;2023-10-31T14:42:44;15.00;1.00
38938;DHT22;24727;51.974;20.868;2023-10-31T14:45:10;15.00;1.00
38938;DHT22;24727;51.974;20.868;2023-10-31T14:47:36;14.90;1.00
38938;DHT22;24727;51.974;20.868;2023-10-31T14:50:02;14.90;1.00
38938;DHT22;24727;51.974;20.868;2023-10-31T14:52:29;14.90;1.00
38938;DHT22;24727;51.974;20.868;2023-10-31T14:54:54;14.80;1.00
38938;DHT22;24727;51.974;20.868;2023-10-31T14:57:20;14.70;1.00
38938;DHT22;24727;51.974;20.868;2023-10-31T14:59:46;14.70;1.00
38938;DHT22;24727;51.974;20.868;2023-10-31T15:02:12;14.70;1.00
38938;DHT22;24727;51.974;20.868;2023-10-31T15:04:39;14.60;1.00
38938;DHT22;24727;51.974;20.868;2023-10-31T15:07:05;14.60;1.00
38938;DHT22;24727;51.974;20.868;2023-10-31T15:09:32;14.60;1.00
38938;DHT22;24727;51.974;20.868;2023-10-31T15:11:58;14.50;1.00
38938;DHT22;24727;51.974;20.868;2023-10-31T15:14:25;14.40;1.00
38938;DHT22;24727;51.974;20.868;2023-10-31T15:16:51;14.40;1.00
38938;DHT22;24727;51.974;20.868;2023-10-31T15:19:18;14.30;1.00
38938;DHT22;24727;51.974;20.868;2023-10-31T15:21:44;14.30;1.00
38938;DHT22;24727;51.974;20.868;2023-10-31T15:24:10;14.20;1.00
38938;DHT22;24727;51.974;20.868;2023-10-31T15:26:38;14.10;1.00
38938;DHT22;24727;51.974;20.868;2023-10-31T15:29:06;14.10;1.00
38938;DHT22;24727;51.974;20.868;2023-10-31T15:31:33;14.10;1.00
38938;DHT22;24727;51.974;20.868;2023-10-31T15:33:59;14.10;1.00
38938;DHT22;24727;51.974;20.868;2023-10-31T15:36:29;14.10;1.00